Heiner, Kentucky
Current Conditions -  °F | °C
As of 3:53 PM on Friday 19 Dec 2014 (Local Time) from KJKL Reporting Station
Clear Clear  
Wind Chill: 36°   Ceiling: Unl
Heat Index: 36°   Visibility: 10mi
Dew Point: 22°   Wind: 0mph
Humidity: 57%   Direction: NA
Pressure: 30.19"   Gusts: NA
Location:  37.3318°N, 83.1697°W
Report Text: KJKL 192053Z AUTO 00000KT 10SM CLR 02/M06 A3019 RMK AO2 SLP233 T00221056 55007
Loading
Personal Weather Stations






























Interactive Weather Map New forecast layout! Learn more

10-Day Weather Forecast

Advertisements
Track Severe Weather on mobile